sensor_id;sensor_type;location;lat;lon;timestamp;P1;durP1;ratioP1;P2;durP2;ratioP2
37169;SDS011;23062;13.952;100.608;2023-06-19T00:04:06;7.00;;;5.00;;
37169;SDS011;23062;13.952;100.608;2023-06-19T00:08:35;8.00;;;5.00;;
37169;SDS011;23062;13.952;100.608;2023-06-19T00:13:04;6.00;;;4.00;;
37169;SDS011;23062;13.952;100.608;2023-06-19T00:17:31;6.00;;;4.00;;
37169;SDS011;23062;13.952;100.608;2023-06-19T00:22:03;5.00;;;3.00;;
37169;SDS011;23062;13.952;100.608;2023-06-19T00:26:31;6.00;;;4.00;;
37169;SDS011;23062;13.952;100.608;2023-06-19T00:30:57;6.00;;;4.00;;
37169;SDS011;23062;13.952;100.608;2023-06-19T00:35:23;6.00;;;4.00;;
37169;SDS011;23062;13.952;100.608;2023-06-19T00:39:52;9.00;;;6.00;;
37169;SDS011;23062;13.952;100.608;2023-06-19T00:44:26;6.00;;;4.00;;
37169;SDS011;23062;13.952;100.608;2023-06-19T00:48:53;8.00;;;5.00;;
37169;SDS011;23062;13.952;100.608;2023-06-19T00:53:25;6.00;;;4.00;;
37169;SDS011;23062;13.952;100.608;2023-06-19T00:57:52;7.00;;;5.00;;
37169;SDS011;23062;13.952;100.608;2023-06-19T01:25:01;0.00;;;0.00;;
37169;SDS011;23062;13.952;100.608;2023-06-19T01:29:30;14.00;;;10.00;;
37169;SDS011;23062;13.952;100.608;2023-06-19T01:33:55;11.00;;;8.00;;
37169;SDS011;23062;13.952;100.608;2023-06-19T01:38:24;9.00;;;6.00;;
37169;SDS011;23062;13.952;100.608;2023-06-19T01:43:01;11.00;;;8.00;;
37169;SDS011;23062;13.952;100.608;2023-06-19T01:47:36;10.00;;;7.00;;
37169;SDS011;23062;13.952;100.608;2023-06-19T01:52:01;8.00;;;6.00;;
37169;SDS011;23062;13.952;100.608;2023-06-19T01:56:35;9.00;;;6.00;;
37169;SDS011;23062;13.952;100.608;2023-06-19T02:01:01;9.00;;;6.00;;
37169;SDS011;23062;13.952;100.608;2023-06-19T02:05:35;9.00;;;5.60;;
37169;SDS011;23062;13.952;100.608;2023-06-19T02:10:02;10.00;;;7.00;;
37169;SDS011;23062;13.952;100.608;2023-06-19T02:14:32;8.00;;;5.00;;
37169;SDS011;23062;13.952;100.608;2023-06-19T02:18:59;8.00;;;6.00;;
37169;SDS011;23062;13.952;100.608;2023-06-19T02:23:25;8.00;;;5.00;;
37169;SDS011;23062;13.952;100.608;2023-06-19T02:27:52;8.00;;;5.00;;
37169;SDS011;23062;13.952;100.608;2023-06-19T02:32:19;7.00;;;5.00;;
37169;SDS011;23062;13.952;100.608;2023-06-19T02:36:46;7.00;;;5.00;;
37169;SDS011;23062;13.952;100.608;2023-06-19T02:41:11;8.00;;;5.00;;
37169;SDS011;23062;13.952;100.608;2023-06-19T02:45:37;7.00;;;5.00;;
37169;SDS011;23062;13.952;100.608;2023-06-19T02:50:03;8.00;;;6.00;;
37169;SDS011;23062;13.952;100.608;2023-06-19T02:54:32;8.00;;;6.00;;
37169;SDS011;23062;13.952;100.608;2023-06-19T02:59:00;7.00;;;5.00;;
37169;SDS011;23062;13.952;100.608;2023-06-19T03:03:33;7.00;;;5.00;;
37169;SDS011;23062;13.952;100.608;2023-06-19T03:08:03;9.00;;;5.60;;
37169;SDS011;23062;13.952;100.608;2023-06-19T03:12:29;9.00;;;6.00;;
37169;SDS011;23062;13.952;100.608;2023-06-19T03:17:02;8.00;;;6.00;;
37169;SDS011;23062;13.952;100.608;2023-06-19T03:21:28;7.00;;;5.00;;
37169;SDS011;23062;13.952;100.608;2023-06-19T03:25:55;7.00;;;4.67;;
37169;SDS011;23062;13.952;100.608;2023-06-19T03:30:20;8.00;;;4.67;;
37169;SDS011;23062;13.952;100.608;2023-06-19T03:35:16;9.00;;;6.00;;
37169;SDS011;23062;13.952;100.608;2023-06-19T03:39:43;8.00;;;5.00;;
37169;SDS011;23062;13.952;100.608;2023-06-19T03:44:17;8.00;;;4.67;;
37169;SDS011;23062;13.952;100.608;2023-06-19T03:48:43;7.00;;;5.00;;
37169;SDS011;23062;13.952;100.608;2023-06-19T03:53:09;8.00;;;6.00;;
37169;SDS011;23062;13.952;100.608;2023-06-19T03:57:57;6.00;;;4.00;;
37169;SDS011;23062;13.952;100.608;2023-06-19T04:02:32;9.00;;;6.00;;
37169;SDS011;23062;13.952;100.608;2023-06-19T04:07:02;8.00;;;5.00;;
37169;SDS011;23062;13.952;100.608;2023-06-19T04:11:28;9.00;;;6.00;;
37169;SDS011;23062;13.952;100.608;2023-06-19T04:16:02;9.00;;;7.00;;
37169;SDS011;23062;13.952;100.608;2023-06-19T04:20:28;9.00;;;7.00;;
37169;SDS011;23062;13.952;100.608;2023-06-19T04:25:06;9.00;;;7.00;;
37169;SDS011;23062;13.952;100.608;2023-06-19T04:29:33;12.00;;;8.00;;
37169;SDS011;23062;13.952;100.608;2023-06-19T04:33:59;10.00;;;7.00;;
37169;SDS011;23062;13.952;100.608;2023-06-19T04:38:34;10.00;;;7.00;;
37169;SDS011;23062;13.952;100.608;2023-06-19T04:43:02;11.00;;;8.00;;
37169;SDS011;23062;13.952;100.608;2023-06-19T04:47:29;11.00;;;8.00;;
37169;SDS011;23062;13.952;100.608;2023-06-19T04:51:55;8.00;;;6.00;;
37169;SDS011;23062;13.952;100.608;2023-06-19T04:56:23;12.00;;;8.00;;
37169;SDS011;23062;13.952;100.608;2023-06-19T05:00:49;11.00;;;8.00;;
37169;SDS011;23062;13.952;100.608;2023-06-19T05:05:26;10.00;;;8.00;;
37169;SDS011;23062;13.952;100.608;2023-06-19T05:09:56;12.00;;;8.00;;
37169;SDS011;23062;13.952;100.608;2023-06-19T05:14:30;11.00;;;8.00;;
37169;SDS011;23062;13.952;100.608;2023-06-19T05:18:56;8.00;;;6.00;;
37169;SDS011;23062;13.952;100.608;2023-06-19T05:23:23;12.00;;;8.00;;
37169;SDS011;23062;13.952;100.608;2023-06-19T05:27:51;12.00;;;9.00;;
37169;SDS011;23062;13.952;100.608;2023-06-19T05:32:29;11.00;;;8.00;;
37169;SDS011;23062;13.952;100.608;2023-06-19T05:36:57;13.00;;;9.00;;
37169;SDS011;23062;13.952;100.608;2023-06-19T05:41:41;9.00;;;6.00;;
37169;SDS011;23062;13.952;100.608;2023-06-19T05:46:08;8.00;;;5.00;;
37169;SDS011;23062;13.952;100.608;2023-06-19T05:50:38;7.00;;;5.00;;
37169;SDS011;23062;13.952;100.608;2023-06-19T05:55:05;7.00;;;5.00;;
37169;SDS011;23062;13.952;100.608;2023-06-19T05:59:33;5.00;;;2.80;;
37169;SDS011;23062;13.952;100.608;2023-06-19T06:03:59;5.00;;;2.80;;
37169;SDS011;23062;13.952;100.608;2023-06-19T06:08:25;6.00;;;3.73;;
37169;SDS011;23062;13.952;100.608;2023-06-19T06:12:51;6.00;;;4.00;;
37169;SDS011;23062;13.952;100.608;2023-06-19T06:17:17;6.00;;;4.00;;
37169;SDS011;23062;13.952;100.608;2023-06-19T06:21:44;7.00;;;5.00;;
37169;SDS011;23062;13.952;100.608;2023-06-19T06:26:11;8.00;;;5.00;;
37169;SDS011;23062;13.952;100.608;2023-06-19T06:30:46;7.00;;;5.00;;
37169;SDS011;23062;13.952;100.608;2023-06-19T06:35:12;8.00;;;5.00;;
37169;SDS011;23062;13.952;100.608;2023-06-19T06:39:39;6.00;;;4.00;;
37169;SDS011;23062;13.952;100.608;2023-06-19T06:44:07;10.00;;;7.00;;
37169;SDS011;23062;13.952;100.608;2023-06-19T06:48:34;9.00;;;7.00;;
37169;SDS011;23062;13.952;100.608;2023-06-19T06:53:02;9.00;;;7.00;;
37169;SDS011;23062;13.952;100.608;2023-06-19T06:57:30;8.00;;;6.00;;
37169;SDS011;23062;13.952;100.608;2023-06-19T07:02:04;10.00;;;7.00;;
37169;SDS011;23062;13.952;100.608;2023-06-19T07:06:31;10.00;;;7.00;;
37169;SDS011;23062;13.952;100.608;2023-06-19T07:10:58;12.00;;;8.00;;
37169;SDS011;23062;13.952;100.608;2023-06-19T07:15:26;10.00;;;7.00;;
37169;SDS011;23062;13.952;100.608;2023-06-19T07:19:54;9.00;;;6.00;;
37169;SDS011;23062;13.952;100.608;2023-06-19T07:24:20;10.00;;;7.00;;
37169;SDS011;23062;13.952;100.608;2023-06-19T07:28:47;8.00;;;6.00;;
37169;SDS011;23062;13.952;100.608;2023-06-19T07:33:12;8.00;;;5.00;;
37169;SDS011;23062;13.952;100.608;2023-06-19T07:37:39;7.00;;;5.00;;
37169;SDS011;23062;13.952;100.608;2023-06-19T07:42:05;7.00;;;5.00;;
37169;SDS011;23062;13.952;100.608;2023-06-19T07:46:40;7.00;;;5.00;;
37169;SDS011;23062;13.952;100.608;2023-06-19T07:51:07;7.00;;;5.00;;
37169;SDS011;23062;13.952;100.608;2023-06-19T07:55:38;7.00;;;4.00;;
37169;SDS011;23062;13.952;100.608;2023-06-19T08:00:07;7.00;;;5.00;;
37169;SDS011;23062;13.952;100.608;2023-06-19T08:04:36;6.00;;;4.00;;
37169;SDS011;23062;13.952;100.608;2023-06-19T08:09:11;8.00;;;5.00;;
37169;SDS011;23062;13.952;100.608;2023-06-19T08:13:37;6.00;;;4.00;;
37169;SDS011;23062;13.952;100.608;2023-06-19T08:18:03;6.00;;;4.00;;
37169;SDS011;23062;13.952;100.608;2023-06-19T08:22:29;6.00;;;4.00;;
37169;SDS011;23062;13.952;100.608;2023-06-19T08:27:00;8.00;;;5.00;;
37169;SDS011;23062;13.952;100.608;2023-06-19T08:31:26;7.00;;;4.00;;
37169;SDS011;23062;13.952;100.608;2023-06-19T08:35:54;6.00;;;4.00;;
37169;SDS011;23062;13.952;100.608;2023-06-19T08:40:26;8.00;;;5.00;;
37169;SDS011;23062;13.952;100.608;2023-06-19T08:44:54;8.00;;;5.00;;
37169;SDS011;23062;13.952;100.608;2023-06-19T08:49:25;6.00;;;4.00;;
37169;SDS011;23062;13.952;100.608;2023-06-19T08:53:56;8.00;;;5.00;;
37169;SDS011;23062;13.952;100.608;2023-06-19T08:58:27;8.00;;;5.00;;
37169;SDS011;23062;13.952;100.608;2023-06-19T09:02:58;6.00;;;4.00;;
37169;SDS011;23062;13.952;100.608;2023-06-19T09:07:26;7.00;;;5.00;;
37169;SDS011;23062;13.952;100.608;2023-06-19T09:12:05;8.00;;;5.00;;
37169;SDS011;23062;13.952;100.608;2023-06-19T09:16:41;7.00;;;5.00;;
37169;SDS011;23062;13.952;100.608;2023-06-19T09:21:20;7.00;;;5.00;;
37169;SDS011;23062;13.952;100.608;2023-06-19T09:25:51;8.00;;;5.00;;
37169;SDS011;23062;13.952;100.608;2023-06-19T09:30:19;7.00;;;5.00;;
37169;SDS011;23062;13.952;100.608;2023-06-19T09:34:47;8.00;;;6.00;;
37169;SDS011;23062;13.952;100.608;2023-06-19T09:39:15;13.00;;;9.00;;
37169;SDS011;23062;13.952;100.608;2023-06-19T09:43:50;12.00;;;8.00;;
37169;SDS011;23062;13.952;100.608;2023-06-19T09:48:19;9.00;;;7.00;;
37169;SDS011;23062;13.952;100.608;2023-06-19T09:56:34;11.00;;;7.00;;
37169;SDS011;23062;13.952;100.608;2023-06-19T10:01:18;8.00;;;6.00;;
37169;SDS011;23062;13.952;100.608;2023-06-19T10:05:47;8.00;;;6.00;;
37169;SDS011;23062;13.952;100.608;2023-06-19T10:10:24;6.00;;;4.00;;
37169;SDS011;23062;13.952;100.608;2023-06-19T10:15:02;6.00;;;4.00;;
37169;SDS011;23062;13.952;100.608;2023-06-19T10:20:34;7.00;;;5.00;;
37169;SDS011;23062;13.952;100.608;2023-06-19T10:25:02;9.00;;;6.00;;
37169;SDS011;23062;13.952;100.608;2023-06-19T10:29:39;8.00;;;5.00;;
37169;SDS011;23062;13.952;100.608;2023-06-19T10:34:07;7.00;;;5.00;;
37169;SDS011;23062;13.952;100.608;2023-06-19T10:38:44;6.00;;;4.00;;
37169;SDS011;23062;13.952;100.608;2023-06-19T10:43:10;8.00;;;6.00;;
37169;SDS011;23062;13.952;100.608;2023-06-19T10:47:37;7.00;;;5.00;;
37169;SDS011;23062;13.952;100.608;2023-06-19T10:52:04;6.00;;;4.00;;
37169;SDS011;23062;13.952;100.608;2023-06-19T10:56:30;7.00;;;5.00;;
37169;SDS011;23062;13.952;100.608;2023-06-19T11:00:56;7.00;;;5.00;;
37169;SDS011;23062;13.952;100.608;2023-06-19T11:05:23;7.00;;;5.00;;
37169;SDS011;23062;13.952;100.608;2023-06-19T11:09:50;7.00;;;5.00;;
37169;SDS011;23062;13.952;100.608;2023-06-19T11:14:17;5.00;;;3.00;;
37169;SDS011;23062;13.952;100.608;2023-06-19T11:18:45;6.00;;;4.00;;
37169;SDS011;23062;13.952;100.608;2023-06-19T11:23:12;7.00;;;5.00;;
37169;SDS011;23062;13.952;100.608;2023-06-19T11:27:38;6.00;;;4.00;;
37169;SDS011;23062;13.952;100.608;2023-06-19T11:32:08;7.00;;;4.67;;
37169;SDS011;23062;13.952;100.608;2023-06-19T11:38:30;9.00;;;6.00;;
37169;SDS011;23062;13.952;100.608;2023-06-19T11:43:04;9.00;;;6.00;;
37169;SDS011;23062;13.952;100.608;2023-06-19T11:47:31;8.00;;;5.00;;
37169;SDS011;23062;13.952;100.608;2023-06-19T11:51:58;8.00;;;5.00;;
37169;SDS011;23062;13.952;100.608;2023-06-19T11:56:24;6.00;;;4.00;;
37169;SDS011;23062;13.952;100.608;2023-06-19T12:00:50;7.00;;;5.00;;
37169;SDS011;23062;13.952;100.608;2023-06-19T12:05:24;7.00;;;5.00;;
37169;SDS011;23062;13.952;100.608;2023-06-19T12:09:53;6.00;;;4.00;;
37169;SDS011;23062;13.952;100.608;2023-06-19T12:14:27;7.00;;;5.00;;
37169;SDS011;23062;13.952;100.608;2023-06-19T12:18:56;6.00;;;4.00;;
37169;SDS011;23062;13.952;100.608;2023-06-19T12:23:29;6.00;;;4.00;;
37169;SDS011;23062;13.952;100.608;2023-06-19T12:27:57;7.00;;;5.00;;
37169;SDS011;23062;13.952;100.608;2023-06-19T12:32:30;5.00;;;3.00;;
37169;SDS011;23062;13.952;100.608;2023-06-19T12:39:32;6.00;;;4.00;;
37169;SDS011;23062;13.952;100.608;2023-06-19T12:44:02;4.00;;;3.00;;
37169;SDS011;23062;13.952;100.608;2023-06-19T12:48:29;6.00;;;4.00;;
37169;SDS011;23062;13.952;100.608;2023-06-19T12:53:03;6.00;;;4.00;;
37169;SDS011;23062;13.952;100.608;2023-06-19T12:57:30;5.00;;;3.00;;
37169;SDS011;23062;13.952;100.608;2023-06-19T13:02:24;5.00;;;3.00;;
37169;SDS011;23062;13.952;100.608;2023-06-19T13:06:51;5.00;;;3.00;;
37169;SDS011;23062;13.952;100.608;2023-06-19T13:11:24;5.00;;;3.00;;
37169;SDS011;23062;13.952;100.608;2023-06-19T13:17:58;4.00;;;2.00;;
37169;SDS011;23062;13.952;100.608;2023-06-19T13:22:51;6.00;;;4.00;;
37169;SDS011;23062;13.952;100.608;2023-06-19T13:32:09;5.00;;;3.00;;
37169;SDS011;23062;13.952;100.608;2023-06-19T13:39:50;5.00;;;3.00;;
37169;SDS011;23062;13.952;100.608;2023-06-19T13:45:05;5.00;;;3.00;;
37169;SDS011;23062;13.952;100.608;2023-06-19T13:49:33;6.00;;;4.00;;
37169;SDS011;23062;13.952;100.608;2023-06-19T13:54:01;5.00;;;3.00;;
37169;SDS011;23062;13.952;100.608;2023-06-19T14:15:29;5.00;;;3.00;;
37169;SDS011;23062;13.952;100.608;2023-06-19T14:26:31;3.00;;;2.00;;
37169;SDS011;23062;13.952;100.608;2023-06-19T14:45:27;3.00;;;2.00;;
37169;SDS011;23062;13.952;100.608;2023-06-19T14:50:35;4.00;;;2.00;;
37169;SDS011;23062;13.952;100.608;2023-06-19T15:08:32;4.00;;;2.00;;
37169;SDS011;23062;13.952;100.608;2023-06-19T15:18:31;3.00;;;2.00;;
37169;SDS011;23062;13.952;100.608;2023-06-19T15:37:37;3.00;;;2.00;;
37169;SDS011;23062;13.952;100.608;2023-06-19T15:57:42;3.00;;;2.00;;
37169;SDS011;23062;13.952;100.608;2023-06-19T16:14:47;4.00;;;2.00;;
37169;SDS011;23062;13.952;100.608;2023-06-19T16:27:45;3.00;;;2.00;;
37169;SDS011;23062;13.952;100.608;2023-06-19T16:32:12;5.00;;;3.00;;
37169;SDS011;23062;13.952;100.608;2023-06-19T16:39:17;2.00;;;1.00;;
37169;SDS011;23062;13.952;100.608;2023-06-19T16:43:45;2.00;;;1.00;;
37169;SDS011;23062;13.952;100.608;2023-06-19T16:48:12;2.00;;;1.00;;
37169;SDS011;23062;13.952;100.608;2023-06-19T16:52:39;4.00;;;2.00;;
37169;SDS011;23062;13.952;100.608;2023-06-19T16:57:12;4.00;;;2.00;;
37169;SDS011;23062;13.952;100.608;2023-06-19T17:01:37;5.00;;;3.00;;
37169;SDS011;23062;13.952;100.608;2023-06-19T17:06:05;2.00;;;1.00;;
37169;SDS011;23062;13.952;100.608;2023-06-19T17:10:36;2.00;;;1.00;;
37169;SDS011;23062;13.952;100.608;2023-06-19T17:15:06;4.00;;;2.00;;
37169;SDS011;23062;13.952;100.608;2023-06-19T17:19:34;3.00;;;2.00;;
37169;SDS011;23062;13.952;100.608;2023-06-19T17:24:00;5.00;;;3.00;;
37169;SDS011;23062;13.952;100.608;2023-06-19T17:28:32;3.00;;;1.00;;
37169;SDS011;23062;13.952;100.608;2023-06-19T17:33:08;3.00;;;2.00;;
37169;SDS011;23062;13.952;100.608;2023-06-19T17:37:39;2.00;;;1.00;;
37169;SDS011;23062;13.952;100.608;2023-06-19T17:55:27;3.00;;;2.00;;
37169;SDS011;23062;13.952;100.608;2023-06-19T18:00:41;4.00;;;2.00;;
37169;SDS011;23062;13.952;100.608;2023-06-19T18:05:17;3.00;;;2.00;;
37169;SDS011;23062;13.952;100.608;2023-06-19T18:11:30;3.00;;;2.00;;
37169;SDS011;23062;13.952;100.608;2023-06-19T18:16:46;4.00;;;2.00;;
37169;SDS011;23062;13.952;100.608;2023-06-19T18:21:22;3.00;;;2.00;;
37169;SDS011;23062;13.952;100.608;2023-06-19T18:27:32;2.00;;;1.00;;
37169;SDS011;23062;13.952;100.608;2023-06-19T18:32:06;4.00;;;2.00;;
37169;SDS011;23062;13.952;100.608;2023-06-19T18:41:03;2.00;;;1.00;;
37169;SDS011;23062;13.952;100.608;2023-06-19T18:48:21;3.00;;;2.00;;
37169;SDS011;23062;13.952;100.608;2023-06-19T18:53:44;2.00;;;1.00;;
37169;SDS011;23062;13.952;100.608;2023-06-19T18:58:12;4.00;;;2.00;;
37169;SDS011;23062;13.952;100.608;2023-06-19T19:02:40;2.00;;;1.00;;
37169;SDS011;23062;13.952;100.608;2023-06-19T19:07:14;2.00;;;1.00;;
37169;SDS011;23062;13.952;100.608;2023-06-19T19:12:38;2.00;;;1.00;;
37169;SDS011;23062;13.952;100.608;2023-06-19T19:18:28;4.00;;;2.00;;
37169;SDS011;23062;13.952;100.608;2023-06-19T19:24:23;4.00;;;2.00;;
37169;SDS011;23062;13.952;100.608;2023-06-19T19:28:59;3.00;;;2.00;;
37169;SDS011;23062;13.952;100.608;2023-06-19T19:33:26;4.00;;;3.00;;
37169;SDS011;23062;13.952;100.608;2023-06-19T19:42:23;2.00;;;1.00;;
37169;SDS011;23062;13.952;100.608;2023-06-19T19:46:49;2.00;;;1.00;;
37169;SDS011;23062;13.952;100.608;2023-06-19T19:51:29;3.00;;;2.00;;
37169;SDS011;23062;13.952;100.608;2023-06-19T19:55:56;4.00;;;2.00;;
37169;SDS011;23062;13.952;100.608;2023-06-19T20:00:29;5.00;;;3.00;;
37169;SDS011;23062;13.952;100.608;2023-06-19T20:09:39;2.00;;;1.00;;
37169;SDS011;23062;13.952;100.608;2023-06-19T20:14:14;4.00;;;3.00;;
37169;SDS011;23062;13.952;100.608;2023-06-19T20:19:34;2.00;;;1.00;;
37169;SDS011;23062;13.952;100.608;2023-06-19T20:24:07;5.00;;;3.00;;
37169;SDS011;23062;13.952;100.608;2023-06-19T20:28:35;3.00;;;1.00;;
37169;SDS011;23062;13.952;100.608;2023-06-19T20:33:29;5.00;;;3.00;;
37169;SDS011;23062;13.952;100.608;2023-06-19T20:37:58;3.00;;;2.00;;
37169;SDS011;23062;13.952;100.608;2023-06-19T20:42:24;4.00;;;2.00;;
37169;SDS011;23062;13.952;100.608;2023-06-19T20:46:52;5.00;;;3.00;;
37169;SDS011;23062;13.952;100.608;2023-06-19T20:51:18;4.00;;;1.87;;
37169;SDS011;23062;13.952;100.608;2023-06-19T20:55:45;4.00;;;2.00;;
37169;SDS011;23062;13.952;100.608;2023-06-19T21:00:20;4.00;;;2.00;;
37169;SDS011;23062;13.952;100.608;2023-06-19T21:04:47;5.00;;;3.00;;
37169;SDS011;23062;13.952;100.608;2023-06-19T21:09:26;3.00;;;2.00;;
37169;SDS011;23062;13.952;100.608;2023-06-19T21:14:03;4.00;;;3.00;;
37169;SDS011;23062;13.952;100.608;2023-06-19T21:18:32;6.00;;;4.00;;
37169;SDS011;23062;13.952;100.608;2023-06-19T21:22:59;3.00;;;2.00;;
37169;SDS011;23062;13.952;100.608;2023-06-19T21:27:27;6.00;;;4.00;;
37169;SDS011;23062;13.952;100.608;2023-06-19T21:31:52;6.00;;;4.00;;
37169;SDS011;23062;13.952;100.608;2023-06-19T21:36:19;7.00;;;5.00;;
37169;SDS011;23062;13.952;100.608;2023-06-19T21:40:45;7.00;;;5.00;;
37169;SDS011;23062;13.952;100.608;2023-06-19T21:45:11;7.00;;;5.00;;
37169;SDS011;23062;13.952;100.608;2023-06-19T21:49:38;7.00;;;5.00;;
37169;SDS011;23062;13.952;100.608;2023-06-19T21:54:04;8.00;;;5.00;;
37169;SDS011;23062;13.952;100.608;2023-06-19T21:58:39;7.00;;;5.00;;
37169;SDS011;23062;13.952;100.608;2023-06-19T22:03:06;7.00;;;5.00;;
37169;SDS011;23062;13.952;100.608;2023-06-19T22:07:32;6.00;;;4.00;;
37169;SDS011;23062;13.952;100.608;2023-06-19T22:12:03;7.00;;;5.00;;
37169;SDS011;23062;13.952;100.608;2023-06-19T22:16:38;9.00;;;6.00;;
37169;SDS011;23062;13.952;100.608;2023-06-19T22:21:04;9.00;;;6.00;;
37169;SDS011;23062;13.952;100.608;2023-06-19T22:25:35;10.00;;;7.00;;
37169;SDS011;23062;13.952;100.608;2023-06-19T22:30:02;7.00;;;5.00;;
37169;SDS011;23062;13.952;100.608;2023-06-19T22:34:37;9.00;;;6.00;;
37169;SDS011;23062;13.952;100.608;2023-06-19T22:39:06;11.00;;;7.00;;
37169;SDS011;23062;13.952;100.608;2023-06-19T22:43:33;8.00;;;5.00;;
37169;SDS011;23062;13.952;100.608;2023-06-19T22:48:01;5.00;;;3.00;;
37169;SDS011;23062;13.952;100.608;2023-06-19T22:52:28;8.00;;;6.00;;
37169;SDS011;23062;13.952;100.608;2023-06-19T22:56:55;6.00;;;4.00;;
37169;SDS011;23062;13.952;100.608;2023-06-19T23:01:22;8.00;;;5.00;;
37169;SDS011;23062;13.952;100.608;2023-06-19T23:05:55;9.00;;;6.00;;
37169;SDS011;23062;13.952;100.608;2023-06-19T23:10:21;7.00;;;5.00;;
37169;SDS011;23062;13.952;100.608;2023-06-19T23:14:49;8.00;;;5.00;;
37169;SDS011;23062;13.952;100.608;2023-06-19T23:19:26;9.00;;;6.00;;
37169;SDS011;23062;13.952;100.608;2023-06-19T23:23:54;7.00;;;5.00;;
37169;SDS011;23062;13.952;100.608;2023-06-19T23:28:21;14.00;;;10.00;;
37169;SDS011;23062;13.952;100.608;2023-06-19T23:32:49;11.00;;;7.00;;
37169;SDS011;23062;13.952;100.608;2023-06-19T23:37:17;9.00;;;7.00;;
37169;SDS011;23062;13.952;100.608;2023-06-19T23:41:45;10.00;;;7.00;;
37169;SDS011;23062;13.952;100.608;2023-06-19T23:46:10;10.00;;;7.00;;
37169;SDS011;23062;13.952;100.608;2023-06-19T23:50:38;7.00;;;5.00;;
37169;SDS011;23062;13.952;100.608;2023-06-19T23:55:05;9.00;;;6.00;;
37169;SDS011;23062;13.952;100.608;2023-06-19T23:59:31;9.00;;;6.00;;
